Time;durP1;ratioP1;P1;durP2;ratioP2;P2;SDS_P1;SDS_P2;PMS_P1;PMS_P2;Temp;Humidity;BMP_temperature;BMP_pressure;BME280_temperature;BME280_humidity;BME280_pressure;Samples;Min_cycle;Max_cycle;Signal;HPM_P1;HPM_P2
2023/10/30 00:01:17;;;;;;;33.13;3.87;;;;;;;;;;5013945;28;20097;-87
2023/10/30 00:03:44;;;;;;;23.80;1.87;;;;;;;;;;5014744;28;20354;-88
2023/10/30 00:06:09;;;;;;;19.90;2.58;;;;;;;;;;5014704;28;20255;-88
2023/10/30 00:08:34;;;;;;;16.57;2.70;;;;;;;;;;5014775;28;20527;-87
2023/10/30 00:11:00;;;;;;;17.57;2.33;;;;;;;;;;5015002;28;20263;-88
2023/10/30 00:13:25;;;;;;;21.37;2.30;;;;;;;;;;5014606;28;20275;-87
2023/10/30 00:15:50;;;;;;;15.93;2.43;;;;;;;;;;5013522;28;20278;-88
2023/10/30 00:18:15;;;;;;;10.40;1.73;;;;;;;;;;5014649;28;20256;-88
2023/10/30 00:20:40;;;;;;;8.82;1.50;;;;;;;;;;5014715;28;20255;-87
2023/10/30 00:23:06;;;;;;;10.23;1.48;;;;;;;;;;5014588;28;20403;-88
2023/10/30 00:25:31;;;;;;;13.38;1.08;;;;;;;;;;5013175;28;20014;-88
2023/10/30 00:27:59;;;;;;;12.63;1.50;;;;;;;;;;5013124;28;20018;-88
2023/10/30 00:30:25;;;;;;;9.93;1.10;;;;;;;;;;5013462;28;20694;-87
2023/10/30 00:32:50;;;;;;;14.63;1.58;;;;;;;;;;5014241;28;20053;-87
2023/10/30 00:35:15;;;;;;;7.90;1.83;;;;;;;;;;5014265;28;20021;-87
2023/10/30 00:37:41;;;;;;;14.75;0.95;;;;;;;;;;5014265;28;20603;-88
2023/10/30 00:40:06;;;;;;;6.97;1.50;;;;;;;;;;5014307;28;20022;-88
2023/10/30 00:42:31;;;;;;;10.13;1.30;;;;;;;;;;5014448;28;20025;-88
2023/10/30 00:44:57;;;;;;;11.67;1.30;;;;;;;;;;5013186;28;20400;-89
2023/10/30 00:47:22;;;;;;;5.53;0.93;;;;;;;;;;5014031;28;20737;-88
2023/10/30 00:49:47;;;;;;;10.80;1.63;;;;;;;;;;5012848;28;20024;-88
2023/10/30 00:52:12;;;;;;;4.95;0.80;;;;;;;;;;5013941;28;20271;-88
2023/10/30 00:54:38;;;;;;;4.97;0.60;;;;;;;;;;5013735;28;20044;-88
2023/10/30 00:57:03;;;;;;;12.67;1.53;;;;;;;;;;5014099;28;20301;-88
2023/10/30 00:59:28;;;;;;;12.63;1.40;;;;;;;;;;5011889;28;20271;-88
2023/10/30 01:01:53;;;;;;;7.60;1.97;;;;;;;;;;5013952;28;20014;-88
2023/10/30 01:04:18;;;;;;;6.47;1.17;;;;;;;;;;5013256;28;20255;-88
2023/10/30 01:06:44;;;;;;;16.33;1.55;;;;;;;;;;5013903;28;20274;-88
2023/10/30 01:09:09;;;;;;;10.80;1.50;;;;;;;;;;5013692;28;20079;-88
2023/10/30 01:11:34;;;;;;;12.23;1.50;;;;;;;;;;5013813;28;20617;-88
2023/10/30 01:13:59;;;;;;;14.40;1.45;;;;;;;;;;5012647;28;20161;-88
2023/10/30 01:16:24;;;;;;;9.93;1.33;;;;;;;;;;5013494;28;20030;-88
2023/10/30 01:18:50;;;;;;;10.87;1.20;;;;;;;;;;5013523;28;20386;-88
2023/10/30 01:21:15;;;;;;;7.28;1.25;;;;;;;;;;5013618;28;20317;-88
2023/10/30 01:23:40;;;;;;;9.63;1.50;;;;;;;;;;5012436;28;20080;-87
2023/10/30 01:26:06;;;;;;;9.57;0.80;;;;;;;;;;5013441;28;20017;-88
2023/10/30 01:28:31;;;;;;;24.20;2.88;;;;;;;;;;5013300;28;20105;-88
2023/10/30 01:30:56;;;;;;;9.03;1.40;;;;;;;;;;5013389;28;20018;-88
2023/10/30 01:33:23;;;;;;;8.20;1.67;;;;;;;;;;5013109;28;20298;-88
2023/10/30 01:35:48;;;;;;;14.40;1.60;;;;;;;;;;5012359;28;20271;-88
2023/10/30 01:38:13;;;;;;;9.48;1.00;;;;;;;;;;5013210;28;20532;-88
2023/10/30 01:40:45;;;;;;;9.73;0.95;;;;;;;;;;5011899;28;20026;-87
2023/10/30 01:43:11;;;;;;;10.57;1.35;;;;;;;;;;5013184;28;20022;-88
2023/10/30 01:45:36;;;;;;;14.47;1.47;;;;;;;;;;5013104;28;20026;-88
2023/10/30 01:48:01;;;;;;;10.60;0.80;;;;;;;;;;5011862;28;20255;-88
2023/10/30 01:50:27;;;;;;;5.88;1.25;;;;;;;;;;5010927;28;20638;-88
2023/10/30 01:52:52;;;;;;;9.52;1.63;;;;;;;;;;5012813;28;20026;-89
2023/10/30 01:55:17;;;;;;;13.18;1.67;;;;;;;;;;5012885;28;20030;-87
2023/10/30 01:57:43;;;;;;;10.18;1.58;;;;;;;;;;5012793;28;20404;-88
2023/10/30 02:00:09;;;;;;;8.30;0.98;;;;;;;;;;5013081;28;20101;-88
2023/10/30 02:02:37;;;;;;;3.85;0.63;;;;;;;;;;5012803;28;20472;-88
2023/10/30 02:05:02;;;;;;;12.48;1.70;;;;;;;;;;5009868;28;20049;-88
2023/10/30 02:07:27;;;;;;;7.82;1.33;;;;;;;;;;5012817;28;20609;-88
2023/10/30 02:09:53;;;;;;;7.32;1.10;;;;;;;;;;5011893;28;20022;-88
2023/10/30 02:12:18;;;;;;;12.43;2.00;;;;;;;;;;5012433;28;20018;-88
2023/10/30 02:14:44;;;;;;;6.47;1.00;;;;;;;;;;5012667;28;20053;-88
2023/10/30 02:17:09;;;;;;;8.43;1.10;;;;;;;;;;5011847;28;20622;-88
2023/10/30 02:19:34;;;;;;;9.77;1.00;;;;;;;;;;5012746;28;20742;-88
2023/10/30 02:21:59;;;;;;;5.37;1.70;;;;;;;;;;5012579;28;20041;-88
2023/10/30 02:24:24;;;;;;;7.50;1.07;;;;;;;;;;5010346;28;20259;-88
2023/10/30 02:26:50;;;;;;;9.63;0.67;;;;;;;;;;5012106;28;20247;-88
2023/10/30 02:29:16;;;;;;;7.40;1.05;;;;;;;;;;5012452;28;20260;-88
2023/10/30 02:31:41;;;;;;;8.50;1.02;;;;;;;;;;5012465;28;20014;-88
2023/10/30 02:34:06;;;;;;;13.52;1.45;;;;;;;;;;5012359;28;20029;-88
2023/10/30 02:36:32;;;;;;;11.13;1.08;;;;;;;;;;5012283;28;20022;-88
2023/10/30 02:38:57;;;;;;;5.40;1.03;;;;;;;;;;5010901;28;20157;-88
2023/10/30 02:41:22;;;;;;;5.20;0.60;;;;;;;;;;5009809;28;20271;-87
2023/10/30 02:43:47;;;;;;;8.60;1.17;;;;;;;;;;5012001;28;20464;-88
2023/10/30 02:46:12;;;;;;;6.27;1.03;;;;;;;;;;5012327;28;20638;-88
2023/10/30 02:48:38;;;;;;;7.38;1.10;;;;;;;;;;5012317;28;20734;-88
2023/10/30 02:51:03;;;;;;;6.20;0.80;;;;;;;;;;5012240;28;20014;-88
2023/10/30 02:53:28;;;;;;;5.72;1.15;;;;;;;;;;5010729;28;20294;-88
2023/10/30 02:55:54;;;;;;;9.90;1.42;;;;;;;;;;5011111;28;20036;-88
2023/10/30 02:58:19;;;;;;;7.90;1.58;;;;;;;;;;5011775;28;20042;-88
2023/10/30 03:00:44;;;;;;;5.00;1.23;;;;;;;;;;5012257;28;20046;-88
2023/10/30 03:03:10;;;;;;;4.03;0.65;;;;;;;;;;5012104;28;20499;-88
2023/10/30 03:05:35;;;;;;;7.25;0.90;;;;;;;;;;5012119;28;20419;-88
2023/10/30 03:08:01;;;;;;;6.88;0.70;;;;;;;;;;5012125;28;20037;-88
2023/10/30 03:10:26;;;;;;;7.10;0.90;;;;;;;;;;5009232;28;20022;-88
2023/10/30 03:12:52;;;;;;;9.48;1.85;;;;;;;;;;5011139;28;20062;-88
2023/10/30 03:15:17;;;;;;;15.02;1.42;;;;;;;;;;5010774;28;20022;-88
2023/10/30 03:17:42;;;;;;;7.05;0.90;;;;;;;;;;5012234;28;20033;-88
2023/10/30 03:20:08;;;;;;;14.10;1.13;;;;;;;;;;5011810;28;20468;-88
2023/10/30 03:22:34;;;;;;;13.10;1.30;;;;;;;;;;5011801;28;20270;-88
2023/10/30 03:24:59;;;;;;;7.28;1.33;;;;;;;;;;5012272;28;20364;-88
2023/10/30 03:27:24;;;;;;;13.07;1.15;;;;;;;;;;5011471;28;20084;-88
2023/10/30 03:29:49;;;;;;;12.23;1.80;;;;;;;;;;5015716;28;20460;-88
2023/10/30 03:32:15;;;;;;;17.10;1.45;;;;;;;;;;5015603;28;20337;-88
2023/10/30 03:34:40;;;;;;;9.68;1.52;;;;;;;;;;5015486;28;20105;-88
2023/10/30 03:37:05;;;;;;;20.13;3.00;;;;;;;;;;5015592;28;20018;-88
2023/10/30 03:39:30;;;;;;;8.23;1.20;;;;;;;;;;5015464;28;20021;-88
2023/10/30 03:41:56;;;;;;;22.10;2.00;;;;;;;;;;5013795;28;20022;-87
2023/10/30 03:44:24;;;;;;;10.15;1.58;;;;;;;;;;5013579;28;20270;-89
2023/10/30 03:46:50;;;;;;;12.18;2.67;;;;;;;;;;5015326;28;20168;-88
2023/10/30 03:49:15;;;;;;;15.47;1.70;;;;;;;;;;5015321;28;20162;-88
2023/10/30 03:51:40;;;;;;;11.13;2.07;;;;;;;;;;5015334;28;20279;-88
2023/10/30 03:54:05;;;;;;;14.73;1.80;;;;;;;;;;5014795;28;20398;-88
2023/10/30 03:56:31;;;;;;;11.25;1.98;;;;;;;;;;5015157;28;20273;-88
2023/10/30 03:58:56;;;;;;;13.10;1.27;;;;;;;;;;5013986;28;20018;-88
2023/10/30 04:01:21;;;;;;;8.77;1.43;;;;;;;;;;5014146;28;20429;-88
2023/10/30 04:03:46;;;;;;;21.75;3.85;;;;;;;;;;5013898;28;20737;-88
2023/10/30 04:06:11;;;;;;;10.10;1.67;;;;;;;;;;5013848;28;20024;-88
2023/10/30 04:08:37;;;;;;;15.33;3.07;;;;;;;;;;5014920;28;20334;-88
2023/10/30 04:11:12;;;;;;;17.23;3.00;;;;;;;;;;5014739;28;20278;-88
2023/10/30 04:13:37;;;;;;;11.52;1.88;;;;;;;;;;5013206;28;20653;-88
2023/10/30 04:16:03;;;;;;;9.27;2.80;;;;;;;;;;5014562;28;20060;-88
2023/10/30 04:18:28;;;;;;;16.02;2.35;;;;;;;;;;5012442;28;20025;-88
2023/10/30 04:20:53;;;;;;;10.95;1.50;;;;;;;;;;5013470;28;20379;-88
2023/10/30 04:23:18;;;;;;;8.33;1.60;;;;;;;;;;5014287;28;20025;-88
2023/10/30 04:25:44;;;;;;;16.35;2.45;;;;;;;;;;5014548;28;20298;-88
2023/10/30 04:28:09;;;;;;;16.15;1.88;;;;;;;;;;5014298;28;20018;-88
2023/10/30 04:30:35;;;;;;;12.27;1.83;;;;;;;;;;5014400;28;20093;-88
2023/10/30 04:33:01;;;;;;;21.05;3.53;;;;;;;;;;5014322;28;20349;-88
2023/10/30 04:35:26;;;;;;;11.00;2.63;;;;;;;;;;5013201;28;20018;-88
2023/10/30 04:37:51;;;;;;;16.30;1.97;;;;;;;;;;5014135;28;20037;-88
2023/10/30 04:40:17;;;;;;;20.25;2.10;;;;;;;;;;5012133;28;20251;-87
2023/10/30 04:42:42;;;;;;;8.57;1.23;;;;;;;;;;5014111;28;20487;-88
2023/10/30 04:45:08;;;;;;;11.10;1.10;;;;;;;;;;5012776;28;20546;-88
2023/10/30 04:47:33;;;;;;;11.55;1.70;;;;;;;;;;5014142;28;20515;-88
2023/10/30 04:49:58;;;;;;;11.07;2.33;;;;;;;;;;5013095;28;20473;-87
2023/10/30 04:52:24;;;;;;;14.65;3.17;;;;;;;;;;5013709;28;20271;-88
2023/10/30 04:54:49;;;;;;;14.63;3.25;;;;;;;;;;5013866;28;20033;-88
2023/10/30 04:57:15;;;;;;;12.70;2.00;;;;;;;;;;5014127;28;20072;-88
2023/10/30 04:59:40;;;;;;;5.30;1.00;;;;;;;;;;5013794;28;20256;-87
2023/10/30 05:02:05;;;;;;;14.67;1.77;;;;;;;;;;5013758;28;20252;-88
2023/10/30 05:04:30;;;;;;;14.45;1.52;;;;;;;;;;5012992;28;20302;-88
2023/10/30 05:06:56;;;;;;;14.43;1.50;;;;;;;;;;4992942;28;20026;-88
2023/10/30 05:09:21;;;;;;;11.30;1.93;;;;;;;;;;4996401;28;20419;-87
2023/10/30 05:11:46;;;;;;;6.75;1.00;;;;;;;;;;5012180;28;20287;-88
2023/10/30 05:14:13;;;;;;;6.97;0.97;;;;;;;;;;5012255;28;20419;-87
2023/10/30 05:16:38;;;;;;;20.85;2.25;;;;;;;;;;5013550;28;20255;-88
2023/10/30 05:19:04;;;;;;;13.98;1.70;;;;;;;;;;5013461;28;20029;-87
2023/10/30 05:21:29;;;;;;;11.67;2.07;;;;;;;;;;5013328;28;20049;-87
2023/10/30 05:23:54;;;;;;;10.27;1.45;;;;;;;;;;5010869;28;20279;-87
2023/10/30 05:26:19;;;;;;;5.50;1.05;;;;;;;;;;5012201;28;20109;-88
2023/10/30 05:28:44;;;;;;;11.00;1.90;;;;;;;;;;5013354;28;20533;-87
2023/10/30 05:31:10;;;;;;;15.37;1.57;;;;;;;;;;5013324;28;20386;-88
2023/10/30 05:33:35;;;;;;;12.07;2.53;;;;;;;;;;5012883;28;20317;-88
2023/10/30 05:36:03;;;;;;;13.57;1.53;;;;;;;;;;5013279;28;20350;-87
2023/10/30 05:38:29;;;;;;;12.73;1.85;;;;;;;;;;5013128;28;20266;-88
2023/10/30 05:40:54;;;;;;;12.80;1.67;;;;;;;;;;5012071;28;20391;-87
2023/10/30 05:43:19;;;;;;;15.35;1.92;;;;;;;;;;5013252;28;20654;-87
2023/10/30 05:45:45;;;;;;;12.17;1.87;;;;;;;;;;5011535;28;20049;-88
2023/10/30 05:48:10;;;;;;;9.77;1.40;;;;;;;;;;5013063;28;20287;-88
2023/10/30 05:50:35;;;;;;;8.07;1.20;;;;;;;;;;5012923;28;20049;-88
2023/10/30 05:53:01;;;;;;;13.67;1.90;;;;;;;;;;5011281;28;20362;-88
2023/10/30 05:55:26;;;;;;;10.13;1.03;;;;;;;;;;5011542;28;20773;-88
2023/10/30 05:57:51;;;;;;;4.32;1.13;;;;;;;;;;5013022;28;20255;-88
2023/10/30 06:00:17;;;;;;;11.98;1.30;;;;;;;;;;5011406;28;20021;-88
2023/10/30 06:02:42;;;;;;;9.52;1.20;;;;;;;;;;5011360;28;20026;-88
2023/10/30 06:05:08;;;;;;;7.27;0.97;;;;;;;;;;5012710;28;20093;-88
2023/10/30 06:07:34;;;;;;;11.50;1.77;;;;;;;;;;5012506;28;20263;-87
2023/10/30 06:10:00;;;;;;;7.30;1.23;;;;;;;;;;5011535;28;20018;-87
2023/10/30 06:12:25;;;;;;;9.07;1.13;;;;;;;;;;5012442;28;20092;-88
2023/10/30 06:14:50;;;;;;;9.40;1.60;;;;;;;;;;5012698;28;20388;-88
2023/10/30 06:17:16;;;;;;;10.20;1.23;;;;;;;;;;5012390;28;20022;-88
2023/10/30 06:19:41;;;;;;;18.87;2.37;;;;;;;;;;5012424;28;20267;-88
2023/10/30 06:22:06;;;;;;;9.77;2.42;;;;;;;;;;5012424;28;20260;-88
2023/10/30 06:24:31;;;;;;;18.00;2.15;;;;;;;;;;5011291;28;20100;-88
2023/10/30 06:26:56;;;;;;;8.80;0.97;;;;;;;;;;5011145;28;20030;-88
2023/10/30 06:29:22;;;;;;;14.07;1.50;;;;;;;;;;5010859;28;20263;-88
2023/10/30 06:31:47;;;;;;;9.77;1.17;;;;;;;;;;5012303;28;20251;-88
2023/10/30 06:34:13;;;;;;;10.50;1.80;;;;;;;;;;5012158;28;20037;-88
2023/10/30 06:36:39;;;;;;;8.43;1.08;;;;;;;;;;5012232;28;20021;-88
2023/10/30 06:39:04;;;;;;;9.00;2.33;;;;;;;;;;5009984;28;20021;-88
2023/10/30 06:41:29;;;;;;;10.73;1.25;;;;;;;;;;5012076;28;20377;-88
2023/10/30 06:43:55;;;;;;;9.63;1.48;;;;;;;;;;5011862;28;20427;-88
2023/10/30 06:46:20;;;;;;;10.43;1.70;;;;;;;;;;5010881;28;20379;-88
2023/10/30 06:48:45;;;;;;;14.30;1.88;;;;;;;;;;5010758;28;20346;-87
2023/10/30 06:51:10;;;;;;;10.53;2.33;;;;;;;;;;5012027;28;20029;-88
2023/10/30 06:53:36;;;;;;;8.40;1.70;;;;;;;;;;5010687;28;20291;-88
2023/10/30 06:56:01;;;;;;;12.83;1.30;;;;;;;;;;5010709;28;20279;-88
2023/10/30 06:58:26;;;;;;;17.17;1.73;;;;;;;;;;5011854;28;20263;-88
2023/10/30 07:00:51;;;;;;;16.27;2.40;;;;;;;;;;5012117;28;20022;-88
2023/10/30 07:03:17;;;;;;;9.68;1.40;;;;;;;;;;5013994;28;20259;-88
2023/10/30 07:05:42;;;;;;;16.60;1.70;;;;;;;;;;5015903;28;20052;-88
2023/10/30 07:08:07;;;;;;;11.33;1.70;;;;;;;;;;5015893;28;20041;-88
2023/10/30 07:10:33;;;;;;;6.90;1.63;;;;;;;;;;5014745;28;20271;-87
2023/10/30 07:12:58;;;;;;;14.18;2.28;;;;;;;;;;5012855;28;20030;-88
2023/10/30 07:15:23;;;;;;;10.27;1.73;;;;;;;;;;5014767;28;20034;-88
2023/10/30 07:17:48;;;;;;;14.32;2.10;;;;;;;;;;5015821;28;20484;-87
2023/10/30 07:20:14;;;;;;;8.30;1.35;;;;;;;;;;5014323;28;20030;-87
2023/10/30 07:22:39;;;;;;;11.50;2.75;;;;;;;;;;5015572;28;20029;-88
2023/10/30 07:25:06;;;;;;;14.27;1.63;;;;;;;;;;5015657;28;20014;-89
2023/10/30 07:27:31;;;;;;;12.52;1.70;;;;;;;;;;5015573;28;20594;-89
2023/10/30 07:29:59;;;;;;;10.85;2.75;;;;;;;;;;5014510;28;20079;-88
2023/10/30 07:32:24;;;;;;;13.18;1.73;;;;;;;;;;5014183;28;20046;-88
2023/10/30 07:34:49;;;;;;;13.90;1.95;;;;;;;;;;5019124;28;20021;-88
2023/10/30 07:37:14;;;;;;;5.65;1.35;;;;;;;;;;5025514;28;20025;-88
2023/10/30 07:39:40;;;;;;;6.85;1.40;;;;;;;;;;5010000;28;20027;-89
2023/10/30 07:42:05;;;;;;;6.97;1.20;;;;;;;;;;5007244;28;20014;-88
2023/10/30 07:44:30;;;;;;;9.68;1.65;;;;;;;;;;5019076;28;20029;-88
2023/10/30 07:46:56;;;;;;;8.50;1.57;;;;;;;;;;5017393;28;20087;-88
2023/10/30 07:49:21;;;;;;;7.47;1.27;;;;;;;;;;5033446;28;20815;-88
2023/10/30 07:51:47;;;;;;;10.27;1.87;;;;;;;;;;5009906;28;20026;-88
2023/10/30 07:54:12;;;;;;;5.80;1.03;;;;;;;;;;5003145;28;20297;-88
2023/10/30 07:56:37;;;;;;;11.00;1.98;;;;;;;;;;5034537;28;20258;-89
2023/10/30 07:59:09;;;;;;;6.22;1.30;;;;;;;;;;5006741;28;20030;-88
2023/10/30 08:01:35;;;;;;;10.15;1.55;;;;;;;;;;5013854;28;20048;-89
2023/10/30 08:04:00;;;;;;;8.65;1.38;;;;;;;;;;5015422;28;20477;-88
2023/10/30 08:06:25;;;;;;;11.02;2.00;;;;;;;;;;5006826;28;20017;-88
2023/10/30 08:08:52;;;;;;;5.45;1.45;;;;;;;;;;5002032;28;20033;-88
2023/10/30 08:11:17;;;;;;;7.40;1.58;;;;;;;;;;4994916;28;20057;-88
2023/10/30 08:13:42;;;;;;;7.35;1.42;;;;;;;;;;5000444;28;20034;-88
2023/10/30 08:16:09;;;;;;;12.90;1.35;;;;;;;;;;5032009;28;20028;-88
2023/10/30 08:18:34;;;;;;;15.48;1.98;;;;;;;;;;5029400;28;20022;-88
2023/10/30 08:21:00;;;;;;;9.82;1.63;;;;;;;;;;5033878;28;20020;-89
2023/10/30 08:23:25;;;;;;;13.67;1.53;;;;;;;;;;5013566;28;20010;-88
2023/10/30 08:25:50;;;;;;;25.30;2.95;;;;;;;;;;5005681;28;20262;-88
2023/10/30 08:28:16;;;;;;;16.40;2.33;;;;;;;;;;5018672;28;20041;-88
2023/10/30 08:30:41;;;;;;;25.00;3.28;;;;;;;;;;5023003;28;20267;-88
2023/10/30 08:33:06;;;;;;;24.37;3.40;;;;;;;;;;5021083;28;20038;-88
2023/10/30 08:35:32;;;;;;;21.80;3.20;;;;;;;;;;5017995;28;20266;-89
2023/10/30 08:37:58;;;;;;;60.35;4.88;;;;;;;;;;5031953;28;20049;-88
2023/10/30 08:40:23;;;;;;;21.90;2.35;;;;;;;;;;5020641;28;20037;-88
2023/10/30 08:42:49;;;;;;;12.57;1.92;;;;;;;;;;5032537;28;20562;-88
2023/10/30 08:45:14;;;;;;;26.17;3.13;;;;;;;;;;5022159;28;20026;-87
2023/10/30 08:47:39;;;;;;;11.73;1.55;;;;;;;;;;5024209;28;20021;-87
2023/10/30 08:50:05;;;;;;;12.18;2.17;;;;;;;;;;5019502;28;20394;-87
2023/10/30 08:52:30;;;;;;;12.02;1.67;;;;;;;;;;5044787;28;20083;-88
2023/10/30 08:54:56;;;;;;;8.88;1.48;;;;;;;;;;5022300;28;20441;-88
2023/10/30 08:57:21;;;;;;;16.15;2.03;;;;;;;;;;5026423;28;20097;-88
2023/10/30 08:59:46;;;;;;;11.40;1.77;;;;;;;;;;5021314;28;20428;-89
2023/10/30 09:02:11;;;;;;;26.13;2.17;;;;;;;;;;5029454;28;20045;-89
2023/10/30 09:04:37;;;;;;;10.48;1.50;;;;;;;;;;5025862;28;20667;-89
2023/10/30 09:07:02;;;;;;;13.48;2.10;;;;;;;;;;5013711;28;20021;-88
2023/10/30 09:09:27;;;;;;;10.70;1.65;;;;;;;;;;5029644;28;20032;-89
2023/10/30 09:11:53;;;;;;;9.55;1.27;;;;;;;;;;5023361;28;20495;-91
2023/10/30 09:14:18;;;;;;;21.88;2.47;;;;;;;;;;5028823;28;20033;-88
2023/10/30 09:16:43;;;;;;;10.40;1.37;;;;;;;;;;5022044;28;20108;-89
2023/10/30 09:19:08;;;;;;;12.97;2.40;;;;;;;;;;5029563;28;20267;-89
2023/10/30 09:21:33;;;;;;;13.85;1.88;;;;;;;;;;5022517;28;20254;-90
2023/10/30 09:23:59;;;;;;;17.73;2.73;;;;;;;;;;5024799;28;20037;-90
2023/10/30 09:26:24;;;;;;;12.15;1.98;;;;;;;;;;5027492;28;20345;-89
2023/10/30 09:28:49;;;;;;;15.48;2.30;;;;;;;;;;5030379;28;20041;-90
2023/10/30 09:31:14;;;;;;;10.65;1.65;;;;;;;;;;5025925;28;20387;-91
2023/10/30 09:33:40;;;;;;;9.27;1.63;;;;;;;;;;5029202;28;20411;-90
2023/10/30 09:36:06;;;;;;;14.17;2.23;;;;;;;;;;5027949;28;20748;-90
2023/10/30 09:38:31;;;;;;;11.50;1.55;;;;;;;;;;5026459;28;20259;-90
2023/10/30 09:40:58;;;;;;;16.17;3.00;;;;;;;;;;5030297;28;20120;-91
2023/10/30 09:43:28;;;;;;;18.90;3.15;;;;;;;;;;5041296;28;20053;-89
2023/10/30 09:45:56;;;;;;;14.48;2.45;;;;;;;;;;5024240;28;20027;-90
2023/10/30 09:48:23;;;;;;;15.73;3.22;;;;;;;;;;5020945;28;20492;-91
2023/10/30 09:50:49;;;;;;;18.83;3.55;;;;;;;;;;5013011;28;20064;-90
2023/10/30 09:53:15;;;;;;;12.45;2.70;;;;;;;;;;5006545;28;20048;-89
2023/10/30 09:55:41;;;;;;;13.45;2.15;;;;;;;;;;5021319;28;20029;-89
2023/10/30 09:58:07;;;;;;;14.88;2.10;;;;;;;;;;5021714;28;20022;-88
2023/10/30 10:00:32;;;;;;;12.63;2.67;;;;;;;;;;5024384;28;20025;-88
2023/10/30 10:02:57;;;;;;;12.98;2.60;;;;;;;;;;5026640;28;20072;-89
2023/10/30 10:05:22;;;;;;;16.67;2.30;;;;;;;;;;5016268;28;20026;-91
2023/10/30 10:07:49;;;;;;;12.65;1.75;;;;;;;;;;5025640;28;20255;-89
2023/10/30 10:10:18;;;;;;;12.35;2.35;;;;;;;;;;5015210;28;20079;-91
2023/10/30 10:12:43;;;;;;;14.50;2.45;;;;;;;;;;5023630;28;20432;-90
2023/10/30 10:15:08;;;;;;;15.43;2.53;;;;;;;;;;5018253;28;20112;-89
2023/10/30 10:17:44;;;;;;;17.33;2.38;;;;;;;;;;5027891;28;20333;-91
2023/10/30 10:20:10;;;;;;;14.68;2.08;;;;;;;;;;5023101;28;20058;-90
2023/10/30 10:22:36;;;;;;;21.42;2.70;;;;;;;;;;5024045;28;20049;-91
2023/10/30 10:25:02;;;;;;;21.02;3.10;;;;;;;;;;5007232;28;20806;-90
2023/10/30 10:27:27;;;;;;;19.70;2.30;;;;;;;;;;5016975;28;20067;-92
2023/10/30 10:29:56;;;;;;;20.45;3.05;;;;;;;;;;5028797;28;20013;-91
2023/10/30 10:32:24;;;;;;;15.90;2.75;;;;;;;;;;5008435;28;20076;-92
2023/10/30 10:34:49;;;;;;;14.18;2.20;;;;;;;;;;4998059;28;20087;-93
2023/10/30 10:37:18;;;;;;;18.95;3.38;;;;;;;;;;5007306;28;20219;-91
2023/10/30 10:39:49;;;;;;;15.32;2.80;;;;;;;;;;5001276;28;20423;-93
2023/10/30 10:42:18;;;;;;;31.75;3.40;;;;;;;;;;4997186;28;20081;-94
2023/10/30 10:44:44;;;;;;;18.10;2.95;;;;;;;;;;4986333;28;20088;-94
2023/10/30 10:47:09;;;;;;;22.80;3.47;;;;;;;;;;4999618;28;20030;-92
2023/10/30 10:49:35;;;;;;;22.83;3.47;;;;;;;;;;5003084;28;20527;-94
2023/10/30 10:52:01;;;;;;;17.77;2.90;;;;;;;;;;5001726;28;20347;-94
2023/10/30 10:54:27;;;;;;;11.23;2.75;;;;;;;;;;5010997;28;20029;-93
2023/10/30 10:56:53;;;;;;;15.82;2.15;;;;;;;;;;5000585;28;20391;-94
2023/10/30 10:59:21;;;;;;;17.73;3.10;;;;;;;;;;5011811;28;20018;-91
2023/10/30 11:01:48;;;;;;;17.85;2.90;;;;;;;;;;5009560;28;20014;-94
2023/10/30 11:04:13;;;;;;;16.88;2.78;;;;;;;;;;5001411;28;20038;-95
2023/10/30 11:06:42;;;;;;;17.23;3.25;;;;;;;;;;4997760;28;20447;-93
2023/10/30 11:09:10;;;;;;;19.83;3.40;;;;;;;;;;5011209;28;20076;-93
2023/10/30 11:11:35;;;;;;;20.23;3.15;;;;;;;;;;5011396;28;20026;-94
2023/10/30 11:14:19;;;;;;;19.30;3.33;;;;;;;;;;5010421;28;20499;-95
2023/10/30 11:16:47;;;;;;;16.17;2.72;;;;;;;;;;5010047;28;20032;-95
2023/10/30 11:19:12;;;;;;;12.63;2.67;;;;;;;;;;5009564;28;20026;-94
2023/10/30 11:21:37;;;;;;;21.10;3.10;;;;;;;;;;5010238;28;20468;-94
2023/10/30 11:24:03;;;;;;;21.63;3.88;;;;;;;;;;5010091;28;20030;-95
2023/10/30 11:26:36;;;;;;;19.23;2.72;;;;;;;;;;5006754;28;20030;-93
2023/10/30 11:29:04;;;;;;;13.05;2.58;;;;;;;;;;4997697;28;20030;-93
2023/10/30 11:31:29;;;;;;;19.85;3.35;;;;;;;;;;5009405;28;20026;-94
2023/10/30 11:34:13;;;;;;;21.77;3.13;;;;;;;;;;5003130;28;20033;-95
2023/10/30 11:36:39;;;;;;;13.70;2.40;;;;;;;;;;5004826;28;20029;-93
2023/10/30 11:39:10;;;;;;;20.27;3.50;;;;;;;;;;5005922;28;20018;-96
2023/10/30 11:41:36;;;;;;;20.13;3.03;;;;;;;;;;5005136;28;20546;-92
2023/10/30 11:44:21;;;;;;;16.58;3.63;;;;;;;;;;5009089;28;20369;-92
2023/10/30 11:46:47;;;;;;;18.77;3.35;;;;;;;;;;5011282;28;20025;-93
2023/10/30 11:49:15;;;;;;;17.95;3.97;;;;;;;;;;5012379;28;20121;-95
2023/10/30 11:51:44;;;;;;;26.48;4.10;;;;;;;;;;5014275;28;20025;-94
2023/10/30 11:54:09;;;;;;;16.65;3.10;;;;;;;;;;5013474;28;20088;-96
2023/10/30 11:56:35;;;;;;;22.27;3.55;;;;;;;;;;5004139;28;20025;-90
2023/10/30 11:59:01;;;;;;;12.13;2.80;;;;;;;;;;5012781;28;20479;-90
2023/10/30 12:01:28;;;;;;;25.45;3.88;;;;;;;;;;5018229;28;20258;-90
2023/10/30 12:03:53;;;;;;;17.02;4.47;;;;;;;;;;5018549;28;20100;-90
2023/10/30 12:06:19;;;;;;;16.03;3.20;;;;;;;;;;5018637;28;20049;-93
2023/10/30 12:08:44;;;;;;;18.70;3.47;;;;;;;;;;5012649;28;20370;-93
2023/10/30 12:11:10;;;;;;;22.70;3.30;;;;;;;;;;5013542;28;20389;-92
2023/10/30 12:13:35;;;;;;;20.65;3.08;;;;;;;;;;5013283;28;20498;-95
2023/10/30 12:16:00;;;;;;;18.15;3.38;;;;;;;;;;5013569;28;20029;-92
2023/10/30 12:18:25;;;;;;;14.13;2.67;;;;;;;;;;5015721;28;20535;-93
2023/10/30 12:20:51;;;;;;;20.15;3.13;;;;;;;;;;5014550;28;20039;-95
2023/10/30 12:23:19;;;;;;;23.13;2.78;;;;;;;;;;5020029;28;20078;-93
2023/10/30 12:25:45;;;;;;;19.90;4.13;;;;;;;;;;5016866;28;20018;-94
2023/10/30 12:28:11;;;;;;;14.50;2.58;;;;;;;;;;5012808;28;20026;-95
2023/10/30 12:30:38;;;;;;;17.52;3.42;;;;;;;;;;5013890;28;20531;-94
2023/10/30 12:33:03;;;;;;;43.05;6.97;;;;;;;;;;5013244;28;20022;-95
2023/10/30 12:35:29;;;;;;;18.05;3.20;;;;;;;;;;5014424;28;20543;-94
2023/10/30 12:37:54;;;;;;;18.83;4.68;;;;;;;;;;5012789;28;20045;-93
2023/10/30 12:40:19;;;;;;;21.02;3.90;;;;;;;;;;5014173;28;20026;-95
2023/10/30 12:42:46;;;;;;;20.70;2.92;;;;;;;;;;5011407;28;20014;-90
2023/10/30 12:45:12;;;;;;;16.80;2.63;;;;;;;;;;5013302;28;20018;-90
2023/10/30 12:47:41;;;;;;;23.10;4.05;;;;;;;;;;5013776;28;20041;-92
2023/10/30 12:50:07;;;;;;;24.13;3.88;;;;;;;;;;5014126;28;20060;-91
2023/10/30 12:52:32;;;;;;;20.60;3.88;;;;;;;;;;5014344;28;20416;-90
2023/10/30 12:54:58;;;;;;;12.75;2.33;;;;;;;;;;5014682;28;20073;-91
2023/10/30 12:57:23;;;;;;;20.73;3.30;;;;;;;;;;5012541;28;20071;-91
2023/10/30 12:59:49;;;;;;;17.83;3.10;;;;;;;;;;5008230;28;20097;-90
2023/10/30 13:02:14;;;;;;;10.93;2.37;;;;;;;;;;5012680;28;20371;-90
2023/10/30 13:04:39;;;;;;;14.95;3.45;;;;;;;;;;5013112;28;20348;-91
2023/10/30 13:07:05;;;;;;;18.05;3.60;;;;;;;;;;5006283;28;20045;-86
2023/10/30 13:09:30;;;;;;;17.88;3.10;;;;;;;;;;5008447;28;20022;-89
2023/10/30 13:11:56;;;;;;;16.35;3.05;;;;;;;;;;5018005;28;20022;-89
2023/10/30 13:14:21;;;;;;;20.38;3.42;;;;;;;;;;5012746;28;20026;-89
2023/10/30 13:16:46;;;;;;;23.05;4.13;;;;;;;;;;5009364;28;20036;-87
2023/10/30 13:19:11;;;;;;;17.10;2.97;;;;;;;;;;5028917;28;20108;-87
2023/10/30 13:21:38;;;;;;;17.77;4.57;;;;;;;;;;5013042;28;20021;-88
2023/10/30 13:24:03;;;;;;;20.30;3.33;;;;;;;;;;5011797;28;20267;-88
2023/10/30 13:26:29;;;;;;;16.45;2.78;;;;;;;;;;5013224;28;20022;-88
2023/10/30 13:28:54;;;;;;;23.13;3.53;;;;;;;;;;5004675;28;20354;-88
2023/10/30 13:31:19;;;;;;;20.60;3.78;;;;;;;;;;5015853;28;20067;-89
2023/10/30 13:33:44;;;;;;;24.27;4.65;;;;;;;;;;5024906;28;20116;-90
2023/10/30 13:36:10;;;;;;;13.50;3.08;;;;;;;;;;5030922;28;20070;-91
2023/10/30 13:38:36;;;;;;;22.67;5.22;;;;;;;;;;5023739;28;20506;-90
2023/10/30 13:41:02;;;;;;;20.92;2.97;;;;;;;;;;5020427;28;20015;-90
2023/10/30 13:43:27;;;;;;;10.82;2.55;;;;;;;;;;5028964;28;20025;-91
2023/10/30 13:45:52;;;;;;;15.73;2.57;;;;;;;;;;5036359;28;20418;-90
2023/10/30 13:48:18;;;;;;;16.87;2.90;;;;;;;;;;5023352;28;20613;-90
2023/10/30 13:50:43;;;;;;;18.13;2.67;;;;;;;;;;5020866;28;20626;-91
2023/10/30 13:53:08;;;;;;;20.33;3.78;;;;;;;;;;5039707;28;20044;-91
2023/10/30 13:55:34;;;;;;;15.75;2.35;;;;;;;;;;5019658;28;20030;-91
2023/10/30 13:57:59;;;;;;;26.33;3.20;;;;;;;;;;5020369;28;20433;-90
2023/10/30 14:00:24;;;;;;;13.87;2.37;;;;;;;;;;5018240;28;20622;-90
2023/10/30 14:02:49;;;;;;;14.23;2.53;;;;;;;;;;5016196;28;20614;-90
2023/10/30 14:05:15;;;;;;;20.02;3.40;;;;;;;;;;5028637;28;20082;-90
2023/10/30 14:07:40;;;;;;;14.02;2.30;;;;;;;;;;5023751;28;20021;-91
2023/10/30 14:10:06;;;;;;;16.58;4.22;;;;;;;;;;5025977;28;20017;-89
2023/10/30 14:12:31;;;;;;;13.43;2.40;;;;;;;;;;5012871;28;20384;-93
2023/10/30 14:14:56;;;;;;;14.80;2.80;;;;;;;;;;5027623;28;20032;-89
2023/10/30 14:17:21;;;;;;;14.00;2.63;;;;;;;;;;5018344;28;20282;-89
2023/10/30 14:19:47;;;;;;;15.87;2.67;;;;;;;;;;5022992;28;20586;-91
2023/10/30 14:22:12;;;;;;;19.15;3.13;;;;;;;;;;5021147;28;20262;-89
2023/10/30 14:24:37;;;;;;;15.20;2.40;;;;;;;;;;5036152;28;20460;-89